WetterOnline ( https://www.wetteronline.at )

Wetter aktuell Kiel

Aktuelles Wetter: Kiel/Holtenau (27m)

6-stündlich | Neueste Meldungen
Ortszeit Temperatur Wetter
Sa, 21.09. 2:00 12.5° C bewölkt
Fr, 20.09. 20:00 14.9° C bedeckt
Fr, 20.09. 14:00 16.9° C bedeckt
Fr, 20.09. 8:00 10.6° C bedeckt
Fr, 20.09. 2:00 8.3° C bewölkt
Do, 19.09. 20:00 11.0° C bedeckt
Do, 19.09. 14:00 14.7° C leicht bewölkt
Do, 19.09. 8:00 7.0° C leicht bewölkt
Ortszeit Temperatur Wetter
Sa, 21.09. 2:30 12.3° C bewölkt
Sa, 21.09. 2:20 12.3° C bewölkt
Sa, 21.09. 2:10 12.3° C bewölkt
Sa, 21.09. 2:00 12.5° C bewölkt
Sa, 21.09. 1:40 12.4° C bewölkt
Sa, 21.09. 1:30 11.9° C wolkig
Sa, 21.09. 1:00 12.6° C fast wolkenlos
Sa, 21.09. 0:30 12.9° C wolkig
Sa, 21.09. 0:00 13.5° C bewölkt
Fr, 20.09. 23:30 13.8° C bedeckt
Ortszeit Relative Feuchte Sichtweite
Sa, 21.09. 2:00 98% 7 km
Fr, 20.09. 20:00 80% >70 km
Fr, 20.09. 14:00 70% >70 km
Fr, 20.09. 8:00 86% 45 km
Fr, 20.09. 2:00 89% 50 km
Do, 19.09. 20:00 74% 50 km
Do, 19.09. 14:00 57% 60 km
Do, 19.09. 8:00 91% 30 km
Ortszeit Relative Feuchte Sichtweite
Sa, 21.09. 2:30 98% 5.0 km
Sa, 21.09. 2:20 98% -
Sa, 21.09. 2:10 98% -
Sa, 21.09. 2:00 98% 7 km
Sa, 21.09. 1:40 98% -
Sa, 21.09. 1:30 98% 5.0 km
Sa, 21.09. 1:00 97% 9 km
Sa, 21.09. 0:30 97% 10 km
Sa, 21.09. 0:00 96% 14 km
Fr, 20.09. 23:30 94% 18 km
Ortszeit Niederschlagsmenge Niederschlagsart
Sa, 21.09. 2:00 0.0 l/m2 in 6 Std. -
Fr, 20.09. 20:00 0.1 l/m2 in 12 Std. Sprühregen
Fr, 20.09. 14:00 0.1 l/m2 in 6 Std. Sprühregen
Fr, 20.09. 8:00 0.0 l/m2 in 12 Std. -
Fr, 20.09. 2:00 0.0 l/m2 in 6 Std. -
Do, 19.09. 20:00 0.0 l/m2 in 12 Std. -
Do, 19.09. 14:00 0.0 l/m2 in 6 Std. -
Do, 19.09. 8:00 0.0 l/m2 in 12 Std. -
Ortszeit Niederschlagsmenge Niederschlagsart
Sa, 21.09. 2:30 0.0 l/m2 in 1 Std. -
Sa, 21.09. 2:20 keine Meldung -
Sa, 21.09. 2:10 keine Meldung -
Sa, 21.09. 2:00 0.0 l/m2 in 1 Std. -
Sa, 21.09. 1:40 keine Meldung -
Sa, 21.09. 1:30 0.0 l/m2 in 1 Std. -
Sa, 21.09. 1:00 0.0 l/m2 in 1 Std. -
Sa, 21.09. 0:30 0.0 l/m2 in 1 Std. -
Sa, 21.09. 0:00 0.0 l/m2 in 1 Std. -
Fr, 20.09. 23:30 0.0 l/m2 in 1 Std. -
Ortszeit Stärke Spitze Richtung
km/h Bft. km/h Grad Sektor
Sa, 21.09. 2:00 7 2 26 250° W
Fr, 20.09. 20:00 19 3 43 260° W
Fr, 20.09. 14:00 24 4 33 270° W
Fr, 20.09. 8:00 11 2 18 240° SW
Fr, 20.09. 2:00 6 1 19 250° W
Do, 19.09. 20:00 11 2 36 280° W
Do, 19.09. 14:00 18 3 32 290° W
Do, 19.09. 8:00 11 2 25 260° W
Ortszeit Stärke Spitze Richtung
km/h Bft. km/h Grad Sektor
Sa, 21.09. 2:30 9 2 13 240° SW
Sa, 21.09. 2:20 9 2 - 240° SW
Sa, 21.09. 2:10 9 2 - 250° W
Sa, 21.09. 2:00 7 2 11 250° W
Sa, 21.09. 1:40 7 2 - 240° SW
Sa, 21.09. 1:30 7 2 11 260° W
Sa, 21.09. 1:00 9 2 15 260° W
Sa, 21.09. 0:30 9 2 15 250° W
Sa, 21.09. 0:00 9 2 22 250° W
Fr, 20.09. 23:30 13 3 22 240° SW
Ortszeit Untergrenze Bedeckung Gattung
total tief tief mittel hoch
Sa, 21.09. 2:00 90 m 7/8 7/8 - - -
Fr, 20.09. 20:00 690 m 8/8 8/8 - - -
Fr, 20.09. 14:00 690 m 8/8 8/8 - - -
Fr, 20.09. 8:00 1230 m 8/8 8/8 - - -
Fr, 20.09. 2:00 2100 m 7/8 7/8 - - -
Do, 19.09. 20:00 3600 m 8/8 8/8 - - -
Do, 19.09. 14:00 1110 m 4/8 3/8 - - -
Do, 19.09. 8:00 9000 m 6/8 0/8 - - -
Ortszeit Bedeckungsgrad in Achtel und Wolkenuntergrenze
Sa, 21.09. 2:30 7(60m)
Sa, 21.09. 2:20 7(60m)
Sa, 21.09. 2:10 7(90m)
Sa, 21.09. 2:00 7(90m)
Sa, 21.09. 1:40 7(90m)
Sa, 21.09. 1:30 5(120m) 6(8400m)
Sa, 21.09. 1:00 1(10500m) 3(8400m)
Sa, 21.09. 0:30 2(360m) 4(9000m) 7(10500m)
Sa, 21.09. 0:00 4(330m) 7(720m) 7(8100m)
Fr, 20.09. 23:30 2(420m) 8(690m) 7(8700m)
Ortszeit Luftdruck NN (hPa) Tendenz (hPa in 3 Std.)
Sa, 21.09. 2:00 1024 - 0,8
Fr, 20.09. 20:00 1025 - 0,7
Fr, 20.09. 14:00 1027 - 0,8
Fr, 20.09. 8:00 1027 - 0,9
Fr, 20.09. 2:00 1029 - 0,2
Do, 19.09. 20:00 1029 + 0,8
Do, 19.09. 14:00 1028 + 0,5
Do, 19.09. 8:00 1026 + 1,1
Ortszeit Luftdruck NN (hPa) Tendenz (hPa in 3 Std.)
Sa, 21.09. 2:30 1024 - 1,0
Sa, 21.09. 2:20 1024 keine Meldung
Sa, 21.09. 2:10 1024 keine Meldung
Sa, 21.09. 2:00 1024 - 0,8
Sa, 21.09. 1:40 1024 keine Meldung
Sa, 21.09. 1:30 1024 - 1,1
Sa, 21.09. 1:00 1024 - 1,1
Sa, 21.09. 0:30 1024 - 0,8
Sa, 21.09. 0:00 1024 - 0,5
Fr, 20.09. 23:30 1025 - 0,3
Ortszeit Schneehöhe (cm)
Sa, 21.09. 2:00 -
Fr, 20.09. 20:00 -
Fr, 20.09. 14:00 -
Fr, 20.09. 8:00 -
Fr, 20.09. 2:00 -
Do, 19.09. 20:00 -
Do, 19.09. 14:00 -
Do, 19.09. 8:00 -
Ortszeit Schneehöhe (cm)
Sa, 21.09. 2:30 -
Sa, 21.09. 2:20 -
Sa, 21.09. 2:10 -
Sa, 21.09. 2:00 -
Sa, 21.09. 1:40 -
Sa, 21.09. 1:30 -
Sa, 21.09. 1:00 -
Sa, 21.09. 0:30 -
Sa, 21.09. 0:00 -
Fr, 20.09. 23:30 -
Link zu dieser Seite / Seite empfehlen

Das Wetter in ...